createdAt,value
2017-08-24T00:00:24.203Z,9.13
2017-08-24T00:02:50.915Z,9.30
2017-08-24T00:05:17.653Z,11.57
2017-08-24T00:07:44.304Z,10.60
2017-08-24T00:10:10.984Z,10.75
2017-08-24T00:12:37.688Z,10.07
2017-08-24T00:15:04.344Z,10.20
2017-08-24T00:17:31.012Z,9.32
2017-08-24T00:19:57.712Z,8.68
2017-08-24T00:22:24.375Z,9.52
2017-08-24T00:24:51.059Z,9.10
2017-08-24T00:27:17.723Z,9.13
2017-08-24T00:29:44.472Z,9.75
2017-08-24T00:32:11.162Z,10.13
2017-08-24T00:34:37.827Z,10.88
2017-08-24T00:37:04.476Z,11.32
2017-08-24T00:39:31.212Z,12.32
2017-08-24T00:41:57.866Z,11.60
2017-08-24T00:44:24.607Z,12.82
2017-08-24T00:46:51.271Z,12.23
2017-08-24T00:49:17.988Z,13.52
2017-08-24T00:51:44.730Z,12.23
2017-08-24T00:54:11.427Z,11.65
2017-08-24T00:56:38.111Z,11.80
2017-08-24T00:59:04.864Z,12.20
2017-08-24T01:01:31.595Z,10.68
2017-08-24T01:03:58.267Z,11.43
2017-08-24T01:06:24.938Z,10.52
2017-08-24T01:08:51.628Z,11.68
2017-08-24T01:11:18.284Z,10.15
2017-08-24T01:13:44.936Z,11.43
2017-08-24T01:16:11.608Z,10.70
2017-08-24T01:18:38.257Z,10.75
2017-08-24T01:21:05.016Z,11.77
2017-08-24T01:23:31.706Z,9.82
2017-08-24T01:25:58.361Z,10.18
2017-08-24T01:28:25.021Z,9.98
2017-08-24T01:30:51.722Z,10.93
2017-08-24T01:33:18.411Z,10.82
2017-08-24T01:35:45.079Z,10.50
2017-08-24T01:38:11.791Z,9.57
2017-08-24T01:40:38.529Z,10.27
2017-08-24T01:43:05.180Z,10.60
2017-08-24T01:45:31.917Z,9.73
2017-08-24T01:47:58.642Z,10.45
2017-08-24T01:50:25.311Z,11.20
2017-08-24T01:52:52.004Z,10.27
2017-08-24T01:55:18.661Z,10.25
2017-08-24T01:57:45.322Z,9.82
2017-08-24T02:00:12.055Z,11.38
2017-08-24T02:02:38.787Z,10.15
2017-08-24T02:05:05.451Z,10.20
2017-08-24T02:07:32.160Z,10.00
2017-08-24T02:09:58.901Z,9.80
2017-08-24T02:12:25.543Z,9.23
2017-08-24T02:14:52.212Z,8.35
2017-08-24T02:17:18.938Z,9.75
2017-08-24T02:19:45.666Z,9.90
2017-08-24T02:22:12.423Z,10.05
2017-08-24T02:24:39.087Z,9.45
2017-08-24T02:27:05.747Z,9.05
2017-08-24T02:29:32.533Z,10.20
2017-08-24T02:31:59.295Z,9.40
2017-08-24T02:34:25.967Z,9.75
2017-08-24T02:36:52.755Z,10.55
2017-08-24T02:39:19.408Z,10.10
2017-08-24T02:41:46.067Z,9.27
2017-08-24T02:44:12.737Z,9.63
2017-08-24T02:46:39.388Z,9.35
2017-08-24T02:49:06.050Z,9.77
2017-08-24T02:51:32.744Z,9.23
2017-08-24T02:53:59.397Z,10.40
2017-08-24T02:56:26.071Z,10.23
2017-08-24T02:58:52.762Z,9.45
2017-08-24T03:01:19.448Z,8.95
2017-08-24T03:03:46.100Z,10.18
2017-08-24T03:06:12.847Z,9.52
2017-08-24T03:08:39.504Z,10.75
2017-08-24T03:11:06.222Z,9.07
2017-08-24T03:13:32.955Z,9.88
2017-08-24T03:15:59.622Z,9.85
2017-08-24T03:18:26.287Z,9.55
2017-08-24T03:20:52.964Z,10.35
2017-08-24T03:23:19.712Z,10.02
2017-08-24T03:25:46.378Z,10.00
2017-08-24T03:28:13.108Z,10.60
2017-08-24T03:30:39.758Z,10.68
2017-08-24T03:33:06.486Z,9.35
2017-08-24T03:35:33.235Z,8.98
2017-08-24T03:37:59.982Z,9.20
2017-08-24T03:40:26.652Z,10.30
2017-08-24T03:42:53.343Z,10.70
2017-08-24T03:45:20.095Z,12.07
2017-08-24T03:47:46.764Z,11.10
2017-08-24T03:50:13.465Z,12.50
2017-08-24T03:52:40.200Z,11.63
2017-08-24T03:55:06.865Z,10.38
2017-08-24T03:57:33.575Z,11.57
2017-08-24T04:00:00.321Z,11.27
2017-08-24T04:02:26.973Z,11.32
2017-08-24T04:04:53.674Z,10.45
2017-08-24T04:07:20.359Z,11.18
2017-08-24T04:09:47.026Z,10.30
2017-08-24T04:12:13.713Z,11.55
2017-08-24T04:14:40.378Z,12.00
2017-08-24T04:17:07.105Z,11.02
2017-08-24T04:19:33.771Z,10.77
2017-08-24T04:22:00.503Z,10.90
2017-08-24T04:24:27.250Z,12.40
2017-08-24T04:26:53.985Z,12.23
2017-08-24T04:29:20.722Z,11.70
2017-08-24T04:31:47.454Z,12.20
2017-08-24T04:34:14.176Z,10.65
2017-08-24T04:36:40.828Z,10.82
2017-08-24T04:39:07.482Z,11.57
2017-08-24T04:41:34.217Z,11.43
2017-08-24T04:44:00.865Z,11.65
2017-08-24T04:46:27.531Z,11.70
2017-08-24T04:48:54.227Z,10.82
2017-08-24T04:51:20.979Z,12.00
2017-08-24T04:53:47.726Z,10.30
2017-08-24T04:56:14.402Z,11.93
2017-08-24T04:58:41.065Z,10.95
2017-08-24T05:01:07.749Z,10.23
2017-08-24T05:03:34.437Z,12.43
2017-08-24T05:06:01.104Z,12.02
2017-08-24T05:08:27.965Z,10.50
2017-08-24T05:10:54.700Z,10.70
2017-08-24T05:13:21.455Z,12.02
2017-08-24T05:15:48.112Z,11.77
2017-08-24T05:18:14.802Z,11.48
2017-08-24T05:20:41.460Z,11.48
2017-08-24T05:23:08.219Z,11.75
2017-08-24T05:25:34.939Z,10.27
2017-08-24T05:28:01.690Z,11.60
2017-08-24T05:30:28.418Z,12.02
2017-08-24T05:32:55.106Z,11.65
2017-08-24T05:35:21.761Z,11.52
2017-08-24T05:37:48.463Z,11.45
2017-08-24T05:40:15.158Z,11.40
2017-08-24T05:42:41.829Z,11.07
2017-08-24T05:45:08.491Z,10.80
2017-08-24T05:47:35.183Z,10.27
2017-08-24T05:50:01.851Z,10.50
2017-08-24T05:52:28.512Z,10.75
2017-08-24T05:54:55.219Z,11.45
2017-08-24T05:57:21.869Z,11.20
2017-08-24T05:59:48.534Z,10.65
2017-08-24T06:02:15.223Z,11.27
2017-08-24T06:04:41.999Z,11.75
2017-08-24T06:07:08.655Z,12.10
2017-08-24T06:09:35.341Z,13.30
2017-08-24T06:12:01.991Z,12.07
2017-08-24T06:14:28.655Z,13.00
2017-08-24T06:16:55.391Z,12.48
2017-08-24T06:19:22.138Z,12.48
2017-08-24T06:21:48.891Z,12.95
2017-08-24T06:24:15.563Z,11.70
2017-08-24T06:26:42.213Z,11.32
2017-08-24T06:29:08.879Z,12.95
2017-08-24T06:31:35.579Z,12.57
2017-08-24T06:34:02.251Z,12.43
2017-08-24T06:36:29.027Z,12.63
2017-08-24T06:38:55.757Z,11.95
2017-08-24T06:41:22.509Z,12.07
2017-08-24T06:43:49.251Z,12.43
2017-08-24T06:46:15.974Z,13.40
2017-08-24T06:48:42.717Z,13.65
2017-08-24T06:51:09.364Z,12.45
2017-08-24T06:53:36.067Z,11.98
2017-08-24T06:56:02.720Z,11.45
2017-08-24T06:58:29.383Z,10.38
2017-08-24T07:00:56.094Z,11.05
2017-08-24T07:03:22.879Z,11.85
2017-08-24T07:05:49.527Z,11.73
2017-08-24T07:08:16.204Z,12.05
2017-08-24T07:10:42.851Z,11.65
2017-08-24T07:13:09.537Z,10.63
2017-08-24T07:15:36.260Z,10.07
2017-08-24T07:18:03.002Z,10.35
2017-08-24T07:20:29.740Z,9.82
2017-08-24T07:22:56.410Z,8.18
2017-08-24T07:25:23.052Z,9.15
2017-08-24T07:27:49.692Z,8.10
2017-08-24T07:30:16.360Z,8.65
2017-08-24T07:32:43.037Z,9.27
2017-08-24T07:35:09.890Z,8.77
2017-08-24T07:37:36.586Z,10.13
2017-08-24T07:40:03.255Z,8.80
2017-08-24T07:42:29.923Z,9.20
2017-08-24T07:44:56.614Z,9.88
2017-08-24T07:47:23.279Z,9.30
2017-08-24T07:49:49.924Z,9.60
2017-08-24T07:52:16.678Z,9.40
2017-08-24T07:54:43.351Z,10.45
2017-08-24T07:57:10.000Z,9.68
2017-08-24T07:59:37.100Z,9.50
2017-08-24T08:02:03.744Z,9.75
2017-08-24T08:04:30.403Z,9.20
2017-08-24T08:06:57.127Z,9.38
2017-08-24T08:09:23.852Z,10.20
2017-08-24T08:11:50.503Z,10.02
2017-08-24T08:14:17.190Z,9.38
2017-08-24T08:16:43.984Z,9.48
2017-08-24T08:19:10.728Z,8.20
2017-08-24T08:21:37.462Z,9.43
2017-08-24T08:24:04.141Z,8.27
2017-08-24T08:26:30.794Z,8.77
2017-08-24T08:28:57.595Z,10.18
2017-08-24T08:31:24.334Z,8.82
2017-08-24T08:33:51.005Z,9.30
2017-08-24T08:36:17.700Z,8.85
2017-08-24T08:38:44.363Z,9.55
2017-08-24T08:41:11.036Z,11.00
2017-08-24T08:43:37.831Z,10.18
2017-08-24T08:46:04.495Z,10.30
2017-08-24T08:48:31.166Z,10.98
2017-08-24T08:50:57.840Z,10.68
2017-08-24T08:53:24.584Z,9.65
2017-08-24T08:55:51.338Z,9.10
2017-08-24T08:58:18.031Z,9.35
2017-08-24T09:00:44.726Z,11.00
2017-08-24T09:03:11.398Z,10.23
2017-08-24T09:05:38.093Z,10.32
2017-08-24T09:08:04.828Z,11.40
2017-08-24T09:10:31.582Z,8.07
2017-08-24T09:12:58.328Z,10.88
2017-08-24T09:15:24.989Z,8.77
2017-08-24T09:17:51.699Z,10.80
2017-08-24T09:20:18.383Z,7.45
2017-08-24T09:22:45.086Z,8.90
2017-08-24T09:25:11.754Z,8.73
2017-08-24T09:27:38.466Z,8.77
2017-08-24T09:30:05.135Z,8.60
2017-08-24T09:32:31.837Z,8.25
2017-08-24T09:34:58.577Z,8.10
2017-08-24T09:37:25.225Z,7.50
2017-08-24T09:39:51.872Z,6.12
2017-08-24T09:42:18.545Z,6.82
2017-08-24T09:44:45.202Z,7.28
2017-08-24T09:47:11.867Z,8.32
2017-08-24T09:49:38.540Z,7.40
2017-08-24T09:52:05.206Z,7.03
2017-08-24T09:54:31.893Z,7.12
2017-08-24T09:56:58.631Z,7.22
2017-08-24T09:59:25.362Z,6.75
2017-08-24T10:01:52.026Z,5.93
2017-08-24T10:04:18.726Z,6.60
2017-08-24T10:06:45.391Z,6.75
2017-08-24T10:09:12.081Z,6.82
2017-08-24T10:11:38.770Z,7.68
2017-08-24T10:14:05.438Z,7.70
2017-08-24T10:16:32.106Z,6.37
2017-08-24T10:18:58.804Z,6.18
2017-08-24T10:21:25.531Z,6.57
2017-08-24T10:23:52.286Z,6.70
2017-08-24T10:26:18.975Z,6.30
2017-08-24T10:28:45.640Z,6.80
2017-08-24T10:31:12.342Z,5.97
2017-08-24T10:33:39.050Z,7.15
2017-08-24T10:36:05.718Z,7.25
2017-08-24T10:38:32.391Z,7.57
2017-08-24T10:40:59.184Z,7.90
2017-08-24T10:43:25.852Z,8.30
2017-08-24T10:45:52.555Z,8.43
2017-08-24T10:48:19.250Z,9.13
2017-08-24T10:50:45.908Z,8.07
2017-08-24T10:53:12.575Z,7.60
2017-08-24T10:55:39.311Z,8.63
2017-08-24T10:58:06.046Z,8.20
2017-08-24T11:00:32.718Z,8.80
2017-08-24T11:02:59.524Z,8.68
2017-08-24T11:05:26.176Z,8.70
2017-08-24T11:07:52.922Z,7.82
2017-08-24T11:10:19.600Z,8.27
2017-08-24T11:12:46.289Z,8.20
2017-08-24T11:15:13.027Z,8.77
2017-08-24T11:17:39.724Z,9.23
2017-08-24T11:20:06.383Z,8.30
2017-08-24T11:22:33.167Z,8.68
2017-08-24T11:24:59.844Z,9.27
2017-08-24T11:27:26.488Z,8.38
2017-08-24T11:29:53.167Z,9.38
2017-08-24T11:32:19.856Z,8.63
2017-08-24T11:34:46.518Z,8.05
2017-08-24T11:37:13.195Z,7.87
2017-08-24T11:39:39.942Z,9.57
2017-08-24T11:42:06.661Z,8.40
2017-08-24T11:44:33.349Z,9.02
2017-08-24T11:47:00.058Z,7.90
2017-08-24T11:49:26.726Z,9.13
2017-08-24T11:51:53.448Z,8.57
2017-08-24T11:54:20.135Z,8.47
2017-08-24T11:56:46.775Z,8.00
2017-08-24T11:59:13.467Z,9.20
2017-08-24T12:01:40.162Z,10.40
2017-08-24T12:04:06.832Z,8.97
2017-08-24T12:06:33.473Z,7.40
2017-08-24T12:09:00.164Z,9.60
2017-08-24T12:11:26.831Z,8.40
2017-08-24T12:13:53.491Z,9.03
2017-08-24T12:16:20.160Z,7.13
2017-08-24T12:18:46.873Z,8.40
2017-08-24T12:21:13.611Z,8.83
2017-08-24T12:23:40.288Z,7.57
2017-08-24T12:26:06.996Z,7.17
2017-08-24T12:28:33.655Z,8.60
2017-08-24T12:31:00.324Z,8.20
2017-08-24T12:33:27.026Z,7.60
2017-08-24T12:35:53.762Z,7.47
2017-08-24T12:38:20.447Z,5.80
2017-08-24T12:40:47.128Z,7.20
2017-08-24T12:43:13.890Z,6.40
2017-08-24T12:45:40.634Z,6.73
2017-08-24T12:48:07.374Z,6.20
2017-08-24T12:50:34.016Z,7.27
2017-08-24T12:53:00.750Z,6.70
2017-08-24T12:55:27.407Z,6.40
2017-08-24T12:57:54.131Z,6.80
2017-08-24T13:00:20.815Z,6.00
2017-08-24T13:02:47.500Z,6.80
2017-08-24T13:05:14.255Z,6.90
2017-08-24T13:07:40.930Z,6.17
2017-08-24T13:10:07.625Z,6.60
2017-08-24T13:12:34.379Z,6.30
2017-08-24T13:15:01.426Z,6.50
2017-08-24T13:17:28.157Z,6.57
2017-08-24T13:19:54.910Z,5.50
2017-08-24T13:22:21.595Z,6.60
2017-08-24T13:24:48.298Z,7.03
2017-08-24T13:27:15.020Z,5.57
2017-08-24T13:29:41.680Z,6.20
2017-08-24T13:32:08.324Z,5.50
2017-08-24T13:34:34.964Z,5.07
2017-08-24T13:37:01.672Z,5.00
2017-08-24T13:39:28.336Z,5.40
2017-08-24T13:41:55.066Z,4.50
2017-08-24T13:44:21.750Z,4.53
2017-08-24T13:46:48.457Z,3.97
2017-08-24T13:49:15.181Z,3.87
2017-08-24T13:51:41.848Z,4.37
2017-08-24T13:54:08.488Z,4.83
2017-08-24T13:56:35.143Z,3.97
2017-08-24T13:59:01.828Z,3.23
2017-08-24T14:01:28.595Z,3.60
2017-08-24T14:03:55.236Z,3.87
2017-08-24T14:06:21.931Z,3.90
2017-08-24T14:08:48.573Z,4.40
2017-08-24T14:11:15.212Z,3.23
2017-08-24T14:13:41.876Z,3.83
2017-08-24T14:16:08.635Z,3.63
2017-08-24T14:18:35.352Z,3.57
2017-08-24T14:21:02.034Z,3.93
2017-08-24T14:23:28.696Z,3.93
2017-08-24T14:25:55.370Z,3.50
2017-08-24T14:28:22.130Z,3.17
2017-08-24T14:30:48.792Z,3.60
2017-08-24T14:33:15.452Z,3.70
2017-08-24T14:35:42.129Z,4.17
2017-08-24T14:38:08.884Z,3.83
2017-08-24T14:40:35.527Z,3.33
2017-08-24T14:43:02.218Z,3.10
2017-08-24T14:45:28.919Z,3.30
2017-08-24T14:47:55.564Z,3.53
2017-08-24T14:50:22.291Z,3.90
2017-08-24T14:52:49.039Z,3.57
2017-08-24T14:55:15.695Z,4.10
2017-08-24T14:57:42.360Z,3.57
2017-08-24T15:00:09.015Z,3.30
2017-08-24T15:02:35.697Z,3.10
2017-08-24T15:05:02.372Z,3.90
2017-08-24T15:07:29.070Z,2.83
2017-08-24T15:09:55.717Z,3.63
2017-08-24T15:12:22.399Z,3.30
2017-08-24T15:14:49.080Z,2.93
2017-08-24T15:17:15.730Z,3.23
2017-08-24T15:19:42.392Z,3.00
2017-08-24T15:22:09.109Z,3.00
2017-08-24T15:24:35.751Z,3.07
2017-08-24T15:27:02.441Z,2.37
2017-08-24T15:29:29.148Z,3.37
2017-08-24T15:31:55.807Z,3.30
2017-08-24T15:34:22.478Z,2.77
2017-08-24T15:36:49.120Z,3.33
2017-08-24T15:39:15.755Z,2.90
2017-08-24T15:41:42.516Z,3.23
2017-08-24T15:44:09.179Z,3.40
2017-08-24T15:46:35.834Z,3.20
2017-08-24T15:49:02.536Z,3.27
2017-08-24T15:51:29.195Z,3.00
2017-08-24T15:53:55.937Z,2.70
2017-08-24T15:56:22.978Z,2.70
2017-08-24T15:58:49.638Z,2.90
2017-08-24T16:01:16.280Z,3.20
2017-08-24T16:03:42.988Z,2.70
2017-08-24T16:06:09.639Z,3.30
2017-08-24T16:08:36.287Z,3.10
2017-08-24T16:11:03.010Z,3.43
2017-08-24T16:13:29.667Z,2.80
2017-08-24T16:15:56.399Z,2.80
2017-08-24T16:18:23.086Z,2.90
2017-08-24T16:20:49.754Z,2.97
2017-08-24T16:23:16.423Z,3.33
2017-08-24T16:25:43.099Z,2.70
2017-08-24T16:28:09.776Z,2.55
2017-08-24T16:30:36.443Z,3.30
2017-08-24T16:33:03.120Z,3.07
2017-08-24T16:35:29.787Z,2.70
2017-08-24T16:37:56.547Z,3.20
2017-08-24T16:40:23.307Z,2.72
2017-08-24T16:42:50.032Z,3.35
2017-08-24T16:45:16.699Z,2.50
2017-08-24T16:47:43.412Z,3.12
2017-08-24T16:50:10.083Z,3.30
2017-08-24T16:52:36.736Z,3.35
2017-08-24T16:55:03.422Z,3.10
2017-08-24T16:57:30.164Z,2.92
2017-08-24T16:59:56.908Z,2.97
2017-08-24T17:02:23.594Z,3.30
2017-08-24T17:04:50.248Z,3.47
2017-08-24T17:07:16.908Z,3.70
2017-08-24T17:09:43.580Z,2.80
2017-08-24T17:12:10.317Z,2.70
2017-08-24T17:14:37.070Z,2.80
2017-08-24T17:17:03.746Z,3.30
2017-08-24T17:19:30.384Z,3.10
2017-08-24T17:21:57.090Z,3.17
2017-08-24T17:24:23.770Z,3.72
2017-08-24T17:26:50.459Z,3.58
2017-08-24T17:29:17.104Z,2.80
2017-08-24T17:31:43.783Z,4.30
2017-08-24T17:34:10.429Z,3.80
2017-08-24T17:36:37.112Z,3.55
2017-08-24T17:39:03.805Z,3.33
2017-08-24T17:41:30.452Z,3.67
2017-08-24T17:43:57.152Z,3.15
2017-08-24T17:46:23.835Z,3.42
2017-08-24T17:48:50.518Z,3.17
2017-08-24T17:51:17.196Z,3.40
2017-08-24T17:53:43.868Z,4.40
2017-08-24T17:56:10.521Z,3.70
2017-08-24T17:58:37.156Z,2.95
2017-08-24T18:01:03.836Z,3.60
2017-08-24T18:03:30.571Z,3.58
2017-08-24T18:05:57.312Z,3.15
2017-08-24T18:08:23.976Z,3.80
2017-08-24T18:10:50.632Z,3.85
2017-08-24T18:13:17.292Z,4.15
2017-08-24T18:15:43.979Z,3.60
2017-08-24T18:18:10.642Z,3.40
2017-08-24T18:20:37.342Z,4.05
2017-08-24T18:23:04.067Z,3.65
2017-08-24T18:25:30.713Z,3.90
2017-08-24T18:27:57.367Z,3.55
2017-08-24T18:30:24.128Z,4.15
2017-08-24T18:32:50.776Z,3.92
2017-08-24T18:35:17.487Z,4.00
2017-08-24T18:37:44.183Z,3.35
2017-08-24T18:40:10.843Z,4.20
2017-08-24T18:42:37.503Z,3.83
2017-08-24T18:45:04.177Z,3.58
2017-08-24T18:47:30.827Z,4.37
2017-08-24T18:49:57.526Z,3.78
2017-08-24T18:52:24.211Z,3.65
2017-08-24T18:54:50.910Z,4.28
2017-08-24T18:57:17.578Z,2.47
2017-08-24T18:59:44.265Z,3.17
2017-08-24T19:02:11.025Z,3.33
2017-08-24T19:04:37.783Z,3.35
2017-08-24T19:07:04.460Z,3.60
2017-08-24T19:09:31.100Z,3.60
2017-08-24T19:11:57.780Z,3.80
2017-08-24T19:14:24.530Z,2.92
2017-08-24T19:16:51.180Z,2.72
2017-08-24T19:19:17.827Z,3.50
2017-08-24T19:21:44.532Z,3.10
2017-08-24T19:24:11.281Z,3.22
2017-08-24T19:26:38.035Z,2.47
2017-08-24T19:29:04.716Z,4.00
2017-08-24T19:31:31.424Z,3.95
2017-08-24T19:33:58.073Z,3.87
2017-08-24T19:36:24.749Z,3.85
2017-08-24T19:38:51.420Z,3.60
2017-08-24T19:41:18.071Z,3.75
2017-08-24T19:43:44.804Z,3.40
2017-08-24T19:46:11.458Z,3.80
2017-08-24T19:48:38.111Z,3.00
2017-08-24T19:51:05.757Z,2.97
2017-08-24T19:53:32.419Z,3.20
2017-08-24T19:55:59.059Z,3.87
2017-08-24T19:58:25.759Z,3.20
2017-08-24T20:00:52.514Z,3.40
2017-08-24T20:03:19.259Z,2.70
2017-08-24T20:05:45.933Z,3.05
2017-08-24T20:08:12.624Z,3.12
2017-08-24T20:10:39.274Z,3.20
2017-08-24T20:13:06.022Z,2.72
2017-08-24T20:15:32.750Z,3.60
2017-08-24T20:17:59.396Z,3.45
2017-08-24T20:20:26.142Z,3.30
2017-08-24T20:22:52.868Z,3.42
2017-08-24T20:25:19.614Z,4.00
2017-08-24T20:27:46.355Z,3.60
2017-08-24T20:30:13.111Z,3.58
2017-08-24T20:32:39.851Z,3.35
2017-08-24T20:35:06.540Z,3.83
2017-08-24T20:37:33.207Z,3.42
2017-08-24T20:39:59.874Z,4.05
2017-08-24T20:42:26.544Z,4.80
2017-08-24T20:44:53.231Z,4.35
2017-08-24T20:47:19.886Z,4.90
2017-08-24T20:49:46.626Z,4.85
2017-08-24T20:52:13.282Z,4.25
2017-08-24T20:54:39.998Z,4.55
2017-08-24T20:57:06.679Z,4.50
2017-08-24T20:59:33.324Z,5.72
2017-08-24T21:02:00.019Z,5.95
2017-08-24T21:04:26.723Z,5.43
2017-08-24T21:06:53.410Z,5.50
2017-08-24T21:09:20.154Z,6.10
2017-08-24T21:11:46.896Z,6.50
2017-08-24T21:14:13.550Z,6.50
2017-08-24T21:16:40.261Z,5.47
2017-08-24T21:19:06.957Z,6.18
2017-08-24T21:21:33.638Z,5.95
2017-08-24T21:24:00.289Z,5.85
2017-08-24T21:26:26.974Z,6.30
2017-08-24T21:28:53.620Z,6.57
2017-08-24T21:31:20.260Z,6.03
2017-08-24T21:33:46.943Z,6.30
2017-08-24T21:36:13.602Z,5.40
2017-08-24T21:38:40.341Z,5.53
2017-08-24T21:41:07.023Z,5.20
2017-08-24T21:43:33.700Z,5.50
2017-08-24T21:46:00.359Z,4.75
2017-08-24T21:48:27.085Z,3.97
2017-08-24T21:50:53.747Z,4.65
2017-08-24T21:53:20.462Z,5.47
2017-08-24T21:55:47.143Z,4.22
2017-08-24T21:58:13.840Z,4.60
2017-08-24T22:00:40.476Z,5.10
2017-08-24T22:03:07.235Z,5.45
2017-08-24T22:05:33.929Z,5.93
2017-08-24T22:08:00.585Z,5.20
2017-08-24T22:10:27.270Z,5.85
2017-08-24T22:12:53.985Z,6.28
2017-08-24T22:15:20.644Z,5.90
2017-08-24T22:17:47.319Z,5.95
2017-08-24T22:20:13.995Z,6.70
2017-08-24T22:22:40.637Z,6.15
2017-08-24T22:25:07.380Z,6.28
2017-08-24T22:27:34.020Z,5.97
2017-08-24T22:30:00.780Z,7.18
2017-08-24T22:32:27.507Z,7.00
2017-08-24T22:34:54.244Z,7.50
2017-08-24T22:37:21.003Z,6.03
2017-08-24T22:39:47.672Z,7.00
2017-08-24T22:42:14.369Z,6.70
2017-08-24T22:44:41.124Z,6.32
2017-08-24T22:47:07.819Z,7.05
2017-08-24T22:49:34.502Z,7.62
2017-08-24T22:52:01.140Z,6.37
2017-08-24T22:54:33.520Z,7.28
2017-08-24T22:57:06.062Z,6.03
2017-08-24T22:59:51.560Z,6.30
2017-08-24T23:02:24.068Z,7.18
2017-08-24T23:04:50.716Z,6.32
2017-08-24T23:07:17.386Z,6.40
2017-08-24T23:09:44.051Z,7.78
2017-08-24T23:12:10.815Z,7.15
2017-08-24T23:14:37.460Z,6.85
2017-08-24T23:17:04.104Z,6.25
2017-08-24T23:19:30.811Z,6.95
2017-08-24T23:21:57.464Z,7.47
2017-08-24T23:24:24.127Z,6.25
2017-08-24T23:26:50.850Z,5.93
2017-08-24T23:29:17.501Z,6.25
2017-08-24T23:31:44.163Z,6.03
2017-08-24T23:34:10.842Z,6.22
2017-08-24T23:36:37.502Z,5.57
2017-08-24T23:39:04.140Z,5.75
2017-08-24T23:41:30.832Z,6.30
2017-08-24T23:43:57.490Z,6.70
2017-08-24T23:46:24.152Z,5.28
2017-08-24T23:48:50.827Z,6.18
2017-08-24T23:51:17.464Z,4.75
2017-08-24T23:53:44.132Z,4.65
2017-08-24T23:56:10.800Z,5.28
2017-08-24T23:58:37.440Z,5.25
